createdAt,value
2018-03-21T00:00:02.020Z,85.44
2018-03-21T00:01:02.009Z,85.53
2018-03-21T00:02:01.994Z,85.25
2018-03-21T00:03:01.981Z,86.29
2018-03-21T00:04:01.972Z,86.10
2018-03-21T00:05:01.966Z,86.19
2018-03-21T00:06:01.956Z,86.10
2018-03-21T00:07:01.952Z,86.67
2018-03-21T00:08:01.938Z,86.67
2018-03-21T00:09:01.935Z,86.67
2018-03-21T00:10:01.920Z,86.48
2018-03-21T00:11:01.914Z,86.38
2018-03-21T00:12:01.907Z,86.57
2018-03-21T00:13:01.893Z,86.67
2018-03-21T00:14:01.884Z,86.57
2018-03-21T00:15:01.876Z,86.29
2018-03-21T00:16:01.867Z,86.10
2018-03-21T00:17:01.858Z,85.44
2018-03-21T00:18:01.852Z,85.77
2018-03-21T00:19:01.937Z,85.82
2018-03-21T00:20:01.832Z,85.63
2018-03-21T00:21:01.822Z,85.49
2018-03-21T00:22:01.814Z,85.49
2018-03-21T00:23:01.809Z,85.86
2018-03-21T00:24:01.796Z,85.35
2018-03-21T00:25:01.788Z,85.91
2018-03-21T00:26:01.780Z,85.77
2018-03-21T00:27:01.772Z,85.68
2018-03-21T00:28:01.761Z,85.63
2018-03-21T00:29:01.762Z,85.86
2018-03-21T00:30:01.746Z,85.82
2018-03-21T00:31:01.740Z,85.82
2018-03-21T00:32:01.728Z,85.77
2018-03-21T00:33:01.803Z,85.58
2018-03-21T00:34:01.709Z,85.20
2018-03-21T00:35:01.700Z,85.58
2018-03-21T00:36:01.692Z,85.30
2018-03-21T00:37:01.683Z,85.49
2018-03-21T00:38:01.674Z,85.39
2018-03-21T00:39:01.665Z,85.96
2018-03-21T00:40:01.655Z,86.24
2018-03-21T00:41:01.647Z,86.10
2018-03-21T00:42:01.638Z,85.44
2018-03-21T00:43:01.631Z,85.91
2018-03-21T00:44:01.621Z,86.76
2018-03-21T00:45:01.614Z,86.76
2018-03-21T00:46:01.605Z,87.24
2018-03-21T00:47:01.595Z,87.05
2018-03-21T00:48:01.585Z,86.86
2018-03-21T00:49:01.577Z,87.24
2018-03-21T00:50:01.568Z,87.33
2018-03-21T00:51:01.560Z,86.86
2018-03-21T00:52:01.558Z,87.05
2018-03-21T00:53:01.541Z,87.05
2018-03-21T00:54:01.532Z,86.95
2018-03-21T00:55:01.523Z,86.86
2018-03-21T00:56:01.514Z,86.48
2018-03-21T00:57:01.507Z,86.01
2018-03-21T00:58:01.496Z,85.53
2018-03-21T00:59:01.487Z,86.29
2018-03-21T01:00:01.478Z,86.10
2018-03-21T01:01:01.470Z,86.10
2018-03-21T01:02:01.462Z,85.82
2018-03-21T01:03:01.452Z,85.53
2018-03-21T01:04:01.442Z,85.35
2018-03-21T01:05:01.434Z,85.68
2018-03-21T01:06:01.726Z,84.88
2018-03-21T01:07:01.419Z,84.64
2018-03-21T01:08:01.407Z,84.22
2018-03-21T01:09:01.398Z,84.22
2018-03-21T01:10:01.391Z,84.64
2018-03-21T01:11:01.383Z,84.26
2018-03-21T01:12:01.372Z,83.84
2018-03-21T01:13:01.364Z,83.88
2018-03-21T01:14:01.355Z,83.69
2018-03-21T01:15:01.346Z,84.07
2018-03-21T01:16:01.338Z,84.16
2018-03-21T01:17:01.328Z,84.26
2018-03-21T01:18:01.320Z,84.35
2018-03-21T01:19:01.311Z,84.41
2018-03-21T01:20:01.302Z,84.50
2018-03-21T01:21:01.294Z,84.41
2018-03-21T01:22:01.285Z,85.16
2018-03-21T01:23:01.277Z,85.35
2018-03-21T01:24:01.266Z,84.97
2018-03-21T01:25:01.257Z,85.01
2018-03-21T01:26:01.254Z,84.59
2018-03-21T01:27:01.240Z,84.26
2018-03-21T01:28:01.231Z,83.88
2018-03-21T01:29:01.223Z,84.07
2018-03-21T01:30:01.216Z,84.50
2018-03-21T01:31:01.204Z,84.16
2018-03-21T01:32:01.195Z,83.55
2018-03-21T01:33:01.187Z,84.03
2018-03-21T01:34:01.178Z,83.78
2018-03-21T01:35:01.169Z,83.93
2018-03-21T01:36:01.160Z,83.69
2018-03-21T01:37:01.151Z,83.93
2018-03-21T01:38:01.145Z,83.65
2018-03-21T01:39:01.134Z,84.78
2018-03-21T01:40:01.123Z,84.97
2018-03-21T01:41:01.116Z,84.59
2018-03-21T01:42:01.107Z,84.69
2018-03-21T01:43:01.099Z,84.78
2018-03-21T01:44:01.089Z,84.59
2018-03-21T01:45:01.084Z,84.41
2018-03-21T01:46:01.071Z,85.16
2018-03-21T01:47:01.091Z,84.41
2018-03-21T01:48:01.054Z,84.78
2018-03-21T01:49:01.045Z,84.41
2018-03-21T01:50:01.036Z,84.59
2018-03-21T01:51:01.031Z,84.22
2018-03-21T01:52:01.018Z,83.93
2018-03-21T01:53:01.010Z,83.55
2018-03-21T01:54:01.006Z,84.12
2018-03-21T01:55:00.995Z,83.88
2018-03-21T01:56:00.983Z,83.88
2018-03-21T01:57:00.976Z,83.65
2018-03-21T01:58:00.966Z,83.78
2018-03-21T01:59:00.959Z,83.69
2018-03-21T02:00:00.947Z,83.84
2018-03-21T02:01:00.940Z,83.46
2018-03-21T02:02:00.935Z,83.93
2018-03-21T02:03:00.921Z,83.74
2018-03-21T02:04:00.912Z,83.84
2018-03-21T02:05:00.903Z,83.84
2018-03-21T02:06:00.894Z,83.74
2018-03-21T02:07:00.888Z,83.88
2018-03-21T02:08:00.877Z,83.59
2018-03-21T02:09:00.868Z,83.59
2018-03-21T02:10:00.862Z,83.40
2018-03-21T02:11:00.851Z,83.50
2018-03-21T02:12:00.851Z,83.31
2018-03-21T02:13:00.833Z,83.03
2018-03-21T02:14:00.825Z,83.69
2018-03-21T02:15:00.822Z,83.31
2018-03-21T02:16:00.807Z,83.78
2018-03-21T02:17:00.798Z,83.93
2018-03-21T02:18:00.789Z,84.12
2018-03-21T02:19:00.781Z,84.59
2018-03-21T02:20:00.773Z,84.69
2018-03-21T02:21:00.763Z,84.69
2018-03-21T02:22:00.755Z,85.35
2018-03-21T02:23:00.746Z,85.44
2018-03-21T02:24:00.735Z,85.63
2018-03-21T02:25:00.729Z,86.10
2018-03-21T02:26:00.720Z,85.72
2018-03-21T02:27:00.711Z,85.63
2018-03-21T02:28:00.701Z,84.69
2018-03-21T02:29:00.692Z,84.82
2018-03-21T02:30:00.683Z,84.82
2018-03-21T02:31:00.680Z,84.82
2018-03-21T02:32:00.668Z,84.54
2018-03-21T02:33:00.656Z,84.97
2018-03-21T02:34:00.652Z,84.97
2018-03-21T02:35:00.639Z,84.82
2018-03-21T02:36:00.630Z,84.41
2018-03-21T02:37:00.622Z,84.45
2018-03-21T02:38:00.613Z,84.64
2018-03-21T02:39:00.605Z,84.16
2018-03-21T02:40:00.599Z,83.88
2018-03-21T02:41:00.586Z,83.97
2018-03-21T02:42:00.578Z,83.88
2018-03-21T02:43:00.569Z,83.40
2018-03-21T02:44:00.561Z,83.31
2018-03-21T02:45:00.551Z,83.22
2018-03-21T02:46:00.555Z,83.78
2018-03-21T02:47:00.534Z,84.07
2018-03-21T02:48:00.527Z,84.35
2018-03-21T02:49:00.515Z,83.78
2018-03-21T02:50:00.507Z,84.16
2018-03-21T02:51:00.499Z,83.78
2018-03-21T02:52:00.495Z,84.07
2018-03-21T02:53:00.480Z,83.97
2018-03-21T02:54:00.473Z,83.88
2018-03-21T02:55:00.463Z,84.31
2018-03-21T02:56:00.454Z,84.41
2018-03-21T02:57:00.446Z,84.59
2018-03-21T02:58:00.438Z,85.35
2018-03-21T02:59:00.434Z,85.25
2018-03-21T03:00:00.420Z,85.63
2018-03-21T03:01:00.416Z,85.25
2018-03-21T03:02:00.403Z,84.64
2018-03-21T03:03:00.393Z,84.82
2018-03-21T03:04:00.388Z,84.64
2018-03-21T03:05:00.375Z,84.54
2018-03-21T03:06:00.368Z,84.45
2018-03-21T03:07:00.361Z,84.22
2018-03-21T03:08:00.350Z,84.41
2018-03-21T03:09:00.340Z,84.35
2018-03-21T03:10:00.333Z,83.78
2018-03-21T03:11:00.322Z,83.65
2018-03-21T03:12:00.315Z,83.84
2018-03-21T03:13:00.304Z,84.16
2018-03-21T03:14:00.296Z,84.41
2018-03-21T03:15:00.287Z,84.41
2018-03-21T03:16:00.276Z,84.78
2018-03-21T03:17:00.269Z,85.44
2018-03-21T03:18:00.261Z,85.35
2018-03-21T03:19:00.253Z,84.69
2018-03-21T03:20:00.242Z,84.41
2018-03-21T03:21:00.233Z,83.97
2018-03-21T03:22:00.225Z,83.88
2018-03-21T03:23:00.216Z,84.07
2018-03-21T03:24:00.207Z,83.78
2018-03-21T03:25:00.200Z,83.97
2018-03-21T03:26:00.192Z,84.45
2018-03-21T03:27:00.187Z,84.59
2018-03-21T03:28:00.175Z,84.69
2018-03-21T03:29:00.164Z,84.59
2018-03-21T03:30:00.155Z,84.59
2018-03-21T03:31:00.147Z,85.35
2018-03-21T03:32:00.138Z,85.16
2018-03-21T03:33:00.127Z,85.53
2018-03-21T03:34:00.120Z,86.01
2018-03-21T03:35:00.111Z,86.29
2018-03-21T03:36:00.101Z,86.48
2018-03-21T03:37:00.092Z,86.19
2018-03-21T03:38:00.084Z,86.48
2018-03-21T03:39:00.074Z,86.38
2018-03-21T03:40:00.065Z,85.91
2018-03-21T03:41:00.057Z,85.82
2018-03-21T03:42:00.048Z,86.29
2018-03-21T03:43:00.040Z,86.38
2018-03-21T03:44:00.031Z,86.01
2018-03-21T03:45:00.021Z,85.49
2018-03-21T03:46:00.014Z,85.39
2018-03-21T03:47:00.003Z,85.63
2018-03-21T03:47:59.994Z,85.01
2018-03-21T03:48:59.986Z,84.92
2018-03-21T03:49:59.977Z,85.01
2018-03-21T03:50:59.969Z,85.86
2018-03-21T03:51:59.959Z,85.30
2018-03-21T03:52:59.950Z,85.30
2018-03-21T03:53:59.941Z,85.16
2018-03-21T03:54:59.933Z,86.01
2018-03-21T03:55:59.925Z,86.10
2018-03-21T03:56:59.917Z,86.29
2018-03-21T03:57:59.907Z,86.01
2018-03-21T03:58:59.898Z,85.86
2018-03-21T03:59:59.889Z,85.49
2018-03-21T04:00:59.879Z,85.39
2018-03-21T04:01:59.872Z,85.44
2018-03-21T04:02:59.864Z,85.68
2018-03-21T04:03:59.857Z,85.20
2018-03-21T04:04:59.847Z,84.73
2018-03-21T04:05:59.836Z,85.20
2018-03-21T04:06:59.827Z,85.20
2018-03-21T04:07:59.817Z,85.30
2018-03-21T04:08:59.811Z,85.30
2018-03-21T04:09:59.801Z,85.58
2018-03-21T04:10:59.792Z,85.16
2018-03-21T04:11:59.782Z,85.35
2018-03-21T04:12:59.773Z,85.53
2018-03-21T04:13:59.765Z,85.44
2018-03-21T04:14:59.757Z,85.82
2018-03-21T04:15:59.747Z,86.19
2018-03-21T04:16:59.741Z,86.86
2018-03-21T04:17:59.730Z,87.43
2018-03-21T04:18:59.722Z,87.33
2018-03-21T04:19:59.712Z,86.38
2018-03-21T04:20:59.703Z,86.38
2018-03-21T04:21:59.695Z,86.29
2018-03-21T04:22:59.687Z,86.29
2018-03-21T04:23:59.678Z,86.10
2018-03-21T04:24:59.668Z,85.82
2018-03-21T04:25:59.658Z,86.29
2018-03-21T04:26:59.650Z,86.10
2018-03-21T04:27:59.643Z,86.15
2018-03-21T04:28:59.633Z,86.01
2018-03-21T04:29:59.623Z,86.01
2018-03-21T04:30:59.616Z,87.14
2018-03-21T04:31:59.605Z,87.33
2018-03-21T04:32:59.596Z,87.52
2018-03-21T04:33:59.594Z,87.52
2018-03-21T04:34:59.579Z,87.90
2018-03-21T04:35:59.570Z,87.99
2018-03-21T04:36:59.566Z,88.18
2018-03-21T04:37:59.553Z,88.28
2018-03-21T04:38:59.544Z,87.90
2018-03-21T04:39:59.535Z,88.09
2018-03-21T04:40:59.526Z,87.90
2018-03-21T04:41:59.518Z,87.99
2018-03-21T04:42:59.511Z,88.09
2018-03-21T04:43:59.499Z,87.99
2018-03-21T04:44:59.490Z,87.80
2018-03-21T04:45:59.481Z,88.28
2018-03-21T04:46:59.474Z,88.28
2018-03-21T04:47:59.464Z,88.46
2018-03-21T04:48:59.455Z,87.71
2018-03-21T04:49:59.445Z,88.37
2018-03-21T04:50:59.439Z,88.65
2018-03-21T04:51:59.428Z,88.65
2018-03-21T04:52:59.419Z,88.70
2018-03-21T04:53:59.412Z,88.32
2018-03-21T04:54:59.403Z,87.99
2018-03-21T04:55:59.392Z,87.99
2018-03-21T04:56:59.385Z,88.51
2018-03-21T04:57:59.377Z,88.60
2018-03-21T04:58:59.367Z,89.12
2018-03-21T04:59:59.359Z,88.89
2018-03-21T05:00:59.349Z,88.98
2018-03-21T05:01:59.341Z,88.89
2018-03-21T05:02:59.333Z,88.60
2018-03-21T05:03:59.323Z,88.23
2018-03-21T05:04:59.313Z,88.23
2018-03-21T05:05:59.306Z,88.32
2018-03-21T05:06:59.297Z,88.70
2018-03-21T05:07:59.289Z,88.89
2018-03-21T05:08:59.283Z,89.26
2018-03-21T05:09:59.270Z,88.89
2018-03-21T05:10:59.262Z,88.70
2018-03-21T05:11:59.254Z,88.51
2018-03-21T05:12:59.244Z,88.89
2018-03-21T05:13:59.236Z,88.28
2018-03-21T05:14:59.226Z,88.70
2018-03-21T05:15:59.217Z,88.46
2018-03-21T05:16:59.209Z,88.98
2018-03-21T05:17:59.200Z,89.26
2018-03-21T05:18:59.193Z,89.45
2018-03-21T05:19:59.188Z,88.98
2018-03-21T05:20:59.175Z,88.60
2018-03-21T05:21:59.167Z,88.60
2018-03-21T05:22:59.156Z,88.79
2018-03-21T05:23:59.146Z,88.93
2018-03-21T05:24:59.139Z,89.17
2018-03-21T05:25:59.131Z,89.40
2018-03-21T05:26:59.122Z,89.22
2018-03-21T05:27:59.113Z,89.31
2018-03-21T05:28:59.103Z,89.40
2018-03-21T05:29:59.098Z,89.64
2018-03-21T05:30:59.085Z,89.31
2018-03-21T05:31:59.081Z,89.83
2018-03-21T05:32:59.069Z,89.50
2018-03-21T05:33:59.061Z,89.45
2018-03-21T05:34:59.052Z,90.16
2018-03-21T05:35:59.042Z,89.97
2018-03-21T05:36:59.059Z,89.83
2018-03-21T05:37:59.024Z,89.64
2018-03-21T05:38:59.016Z,89.45
2018-03-21T05:39:59.006Z,89.26
2018-03-21T05:40:58.998Z,89.54
2018-03-21T05:41:58.991Z,89.54
2018-03-21T05:42:58.981Z,89.26
2018-03-21T05:43:58.971Z,89.88
2018-03-21T05:44:58.963Z,90.07
2018-03-21T05:45:58.954Z,90.16
2018-03-21T05:46:58.946Z,90.07
2018-03-21T05:47:58.977Z,90.07
2018-03-21T05:48:58.928Z,90.16
2018-03-21T05:49:58.920Z,89.88
2018-03-21T05:50:58.916Z,90.45
2018-03-21T05:51:58.902Z,90.64
2018-03-21T05:52:58.894Z,90.73
2018-03-21T05:53:58.884Z,90.92
2018-03-21T05:54:58.878Z,90.45
2018-03-21T05:55:58.865Z,90.64
2018-03-21T05:56:58.859Z,90.92
2018-03-21T05:57:58.849Z,90.11
2018-03-21T05:58:58.840Z,90.07
2018-03-21T05:59:58.834Z,90.30
2018-03-21T06:00:58.824Z,90.07
2018-03-21T06:01:58.818Z,89.88
2018-03-21T06:02:58.805Z,90.45
2018-03-21T06:03:58.796Z,90.87
2018-03-21T06:04:58.787Z,90.54
2018-03-21T06:05:58.778Z,89.92
2018-03-21T06:06:58.770Z,90.11
2018-03-21T06:07:58.761Z,89.54
2018-03-21T06:08:58.752Z,89.92
2018-03-21T06:09:58.746Z,89.88
2018-03-21T06:10:58.734Z,90.07
2018-03-21T06:11:58.727Z,90.59
2018-03-21T06:12:58.717Z,89.83
2018-03-21T06:13:58.709Z,90.11
2018-03-21T06:14:58.700Z,89.92
2018-03-21T06:15:58.690Z,89.92
2018-03-21T06:16:58.682Z,89.36
2018-03-21T06:17:58.672Z,89.64
2018-03-21T06:18:58.665Z,89.64
2018-03-21T06:19:58.656Z,90.21
2018-03-21T06:20:58.647Z,89.83
2018-03-21T06:21:58.639Z,90.68
2018-03-21T06:22:58.630Z,90.21
2018-03-21T06:23:58.620Z,90.45
2018-03-21T06:24:58.613Z,90.68
2018-03-21T06:25:58.604Z,90.77
2018-03-21T06:26:58.597Z,89.92
2018-03-21T06:27:58.587Z,90.30
2018-03-21T06:28:58.577Z,89.83
2018-03-21T06:29:58.569Z,89.92
2018-03-21T06:30:58.560Z,89.64
2018-03-21T06:31:58.551Z,89.26
2018-03-21T06:32:58.545Z,89.26
2018-03-21T06:33:58.534Z,89.83
2018-03-21T06:34:58.526Z,89.45
2018-03-21T06:35:58.517Z,88.98
2018-03-21T06:36:58.508Z,89.07
2018-03-21T06:37:58.548Z,88.98
2018-03-21T06:38:58.495Z,88.89
2018-03-21T06:39:58.482Z,88.98
2018-03-21T06:40:58.475Z,88.98
2018-03-21T06:41:58.465Z,89.17
2018-03-21T06:42:58.457Z,88.70
2018-03-21T06:43:58.446Z,88.60
2018-03-21T06:44:58.440Z,88.42
2018-03-21T06:45:58.434Z,88.23
2018-03-21T06:46:58.423Z,88.51
2018-03-21T06:47:58.413Z,88.23
2018-03-21T06:48:58.404Z,88.79
2018-03-21T06:49:58.448Z,88.89
2018-03-21T06:50:58.390Z,88.79
2018-03-21T06:51:58.380Z,88.60
2018-03-21T06:52:58.371Z,89.17
2018-03-21T06:53:58.363Z,88.70
2018-03-21T06:54:58.357Z,88.79
2018-03-21T06:55:58.346Z,88.98
2018-03-21T06:56:58.339Z,88.60
2018-03-21T06:57:58.330Z,88.42
2018-03-21T06:58:58.321Z,88.32
2018-03-21T06:59:58.316Z,88.98
2018-03-21T07:00:58.335Z,88.32
2018-03-21T07:01:58.296Z,88.60
2018-03-21T07:02:58.290Z,87.94
2018-03-21T07:03:58.279Z,88.60
2018-03-21T07:04:58.271Z,88.42
2018-03-21T07:05:58.263Z,88.79
2018-03-21T07:06:58.255Z,89.17
2018-03-21T07:07:58.246Z,88.79
2018-03-21T07:08:58.238Z,89.07
2018-03-21T07:09:58.230Z,89.50
2018-03-21T07:10:58.223Z,89.07
2018-03-21T07:11:58.216Z,89.07
2018-03-21T07:12:58.206Z,88.65
2018-03-21T07:13:58.247Z,88.32
2018-03-21T07:14:58.189Z,88.55
2018-03-21T07:15:58.181Z,89.64
2018-03-21T07:16:58.171Z,89.45
2018-03-21T07:17:58.166Z,89.26
2018-03-21T07:18:58.157Z,89.54
2018-03-21T07:19:58.147Z,89.73
2018-03-21T07:20:58.139Z,90.11
2018-03-21T07:21:58.132Z,90.54
2018-03-21T07:22:58.123Z,90.68
2018-03-21T07:23:58.113Z,90.63
2018-03-21T07:24:58.106Z,90.40
2018-03-21T07:25:58.098Z,90.87
2018-03-21T07:26:58.090Z,90.40
2018-03-21T07:27:58.081Z,90.96
2018-03-21T07:28:58.079Z,90.77
2018-03-21T07:29:58.065Z,90.87
2018-03-21T07:30:58.056Z,90.91
2018-03-21T07:31:58.046Z,91.01
2018-03-21T07:32:58.039Z,90.25
2018-03-21T07:33:58.031Z,90.82
2018-03-21T07:34:58.024Z,90.35
2018-03-21T07:35:58.015Z,90.73
2018-03-21T07:36:58.006Z,90.06
2018-03-21T07:37:57.998Z,89.97
2018-03-21T07:38:57.989Z,89.69
2018-03-21T07:39:57.981Z,89.03
2018-03-21T07:40:57.974Z,89.69
2018-03-21T07:41:57.966Z,89.78
2018-03-21T07:42:57.957Z,89.50
2018-03-21T07:43:57.952Z,89.92
2018-03-21T07:44:57.941Z,90.02
2018-03-21T07:45:57.934Z,90.25
2018-03-21T07:46:57.925Z,90.25
2018-03-21T07:47:57.915Z,90.16
2018-03-21T07:48:57.908Z,90.16
2018-03-21T07:49:57.900Z,89.87
2018-03-21T07:50:57.893Z,89.87
2018-03-21T07:51:57.883Z,89.78
2018-03-21T07:52:57.874Z,89.31
2018-03-21T07:53:57.867Z,89.03
2018-03-21T07:54:57.861Z,88.36
2018-03-21T07:55:57.850Z,88.27
2018-03-21T07:56:57.842Z,88.17
2018-03-21T07:57:57.834Z,87.79
2018-03-21T07:58:57.826Z,87.79
2018-03-21T07:59:57.867Z,87.42
2018-03-21T08:00:57.810Z,86.76
2018-03-21T08:01:57.803Z,86.47
2018-03-21T08:02:57.795Z,86.66
2018-03-21T08:03:57.787Z,87.13
2018-03-21T08:04:57.778Z,87.32
2018-03-21T08:05:57.771Z,87.61
2018-03-21T08:06:57.764Z,87.61
2018-03-21T08:07:57.761Z,87.42
2018-03-21T08:08:57.752Z,87.32
2018-03-21T08:09:57.740Z,87.04
2018-03-21T08:10:57.733Z,87.04
2018-03-21T08:11:57.726Z,87.23
2018-03-21T08:12:57.718Z,86.85
2018-03-21T08:13:57.710Z,87.32
2018-03-21T08:14:57.705Z,87.23
2018-03-21T08:15:57.694Z,88.17
2018-03-21T08:16:57.686Z,88.65
2018-03-21T08:17:57.678Z,88.36
2018-03-21T08:18:57.671Z,88.46
2018-03-21T08:19:57.663Z,88.55
2018-03-21T08:20:57.656Z,87.51
2018-03-21T08:21:57.649Z,87.13
2018-03-21T08:22:57.640Z,86.94
2018-03-21T08:23:57.632Z,86.85
2018-03-21T08:24:57.624Z,87.42
2018-03-21T08:25:57.617Z,88.08
2018-03-21T08:26:57.613Z,87.98
2018-03-21T08:27:57.636Z,88.36
2018-03-21T08:28:57.649Z,88.08
2018-03-21T08:29:57.586Z,88.17
2018-03-21T08:30:57.578Z,88.36
2018-03-21T08:31:57.572Z,88.74
2018-03-21T08:32:57.562Z,88.46
2018-03-21T08:33:57.558Z,88.46
2018-03-21T08:34:57.546Z,88.84
2018-03-21T08:35:57.581Z,88.74
2018-03-21T08:36:57.531Z,88.74
2018-03-21T08:37:57.523Z,89.03
2018-03-21T08:38:57.515Z,89.22
2018-03-21T08:39:57.508Z,88.46
2018-03-21T08:40:57.500Z,88.46
2018-03-21T08:41:57.494Z,88.46
2018-03-21T08:42:57.485Z,88.27
2018-03-21T08:43:57.519Z,87.98
2018-03-21T08:44:57.468Z,87.70
2018-03-21T08:45:57.461Z,86.99
2018-03-21T08:46:57.454Z,86.61
2018-03-21T08:47:57.445Z,86.14
2018-03-21T08:48:57.438Z,85.66
2018-03-21T08:49:57.430Z,85.66
2018-03-21T08:50:57.424Z,85.66
2018-03-21T08:51:57.415Z,84.91
2018-03-21T08:52:57.409Z,84.72
2018-03-21T08:53:57.402Z,84.53
2018-03-21T08:54:57.394Z,84.44
2018-03-21T08:55:57.386Z,84.53
2018-03-21T08:56:57.378Z,83.97
2018-03-21T08:57:57.372Z,83.30
2018-03-21T08:58:57.366Z,83.68
2018-03-21T08:59:57.356Z,83.49
2018-03-21T09:00:57.350Z,83.02
2018-03-21T09:01:57.344Z,83.21
2018-03-21T09:02:57.336Z,82.83
2018-03-21T09:03:57.328Z,82.73
2018-03-21T09:04:57.321Z,82.12
2018-03-21T09:05:57.315Z,81.26
2018-03-21T09:06:57.308Z,80.32
2018-03-21T09:07:57.300Z,80.22
2018-03-21T09:08:57.293Z,80.41
2018-03-21T09:09:57.286Z,80.60
2018-03-21T09:10:57.281Z,79.66
2018-03-21T09:11:57.273Z,79.37
2018-03-21T09:12:57.268Z,79.37
2018-03-21T09:13:57.261Z,78.71
2018-03-21T09:14:57.259Z,78.52
2018-03-21T09:15:57.251Z,78.52
2018-03-21T09:16:57.240Z,78.90
2018-03-21T09:17:57.235Z,79.18
2018-03-21T09:18:57.231Z,79.09
2018-03-21T09:19:57.223Z,78.42
2018-03-21T09:20:57.217Z,77.76
2018-03-21T09:21:57.211Z,78.23
2018-03-21T09:22:57.205Z,78.05
2018-03-21T09:23:57.199Z,78.05
2018-03-21T09:24:57.193Z,77.95
2018-03-21T09:25:57.187Z,78.23
2018-03-21T09:26:57.182Z,78.71
2018-03-21T09:27:57.494Z,79.09
2018-03-21T09:28:57.168Z,79.56
2018-03-21T09:29:57.162Z,79.61
2018-03-21T09:30:57.157Z,78.67
2018-03-21T09:31:57.172Z,79.24
2018-03-21T09:32:57.143Z,79.37
2018-03-21T09:33:57.137Z,79.52
2018-03-21T09:34:57.131Z,79.28
2018-03-21T09:35:57.123Z,78.99
2018-03-21T09:36:57.117Z,79.28
2018-03-21T09:37:57.112Z,79.09
2018-03-21T09:38:57.106Z,78.80
2018-03-21T09:39:57.101Z,77.76
2018-03-21T09:40:57.092Z,76.91
2018-03-21T09:41:57.088Z,76.91
2018-03-21T09:42:57.080Z,76.44
2018-03-21T09:43:57.073Z,77.20
2018-03-21T09:44:57.071Z,77.86
2018-03-21T09:45:57.062Z,77.58
2018-03-21T09:46:57.055Z,78.23
2018-03-21T09:47:57.049Z,78.14
2018-03-21T09:48:57.044Z,77.48
2018-03-21T09:49:57.037Z,77.48
2018-03-21T09:50:57.032Z,77.20
2018-03-21T09:51:57.025Z,76.63
2018-03-21T09:52:57.029Z,76.57
2018-03-21T09:53:57.017Z,76.48
2018-03-21T09:54:57.008Z,75.62
2018-03-21T09:55:57.002Z,74.11
2018-03-21T09:56:56.998Z,74.21
2018-03-21T09:57:56.992Z,74.40
2018-03-21T09:58:56.992Z,74.30
2018-03-21T09:59:56.980Z,74.30
2018-03-21T10:00:56.975Z,74.77
2018-03-21T10:01:56.970Z,74.96
2018-03-21T10:02:56.964Z,75.91
2018-03-21T10:03:56.958Z,74.68
2018-03-21T10:04:56.952Z,74.11
2018-03-21T10:05:56.950Z,74.68
2018-03-21T10:06:56.943Z,74.77
2018-03-21T10:07:56.940Z,74.77
2018-03-21T10:08:56.931Z,74.74
2018-03-21T10:09:56.926Z,74.83
2018-03-21T10:10:56.922Z,75.49
2018-03-21T10:11:56.915Z,75.21
2018-03-21T10:12:56.909Z,74.64
2018-03-21T10:13:56.904Z,75.31
2018-03-21T10:14:56.899Z,76.15
2018-03-21T10:15:56.892Z,76.72
2018-03-21T10:16:56.894Z,76.91
2018-03-21T10:17:56.882Z,76.72
2018-03-21T10:18:56.959Z,77.01
2018-03-21T10:19:56.874Z,76.06
2018-03-21T10:20:56.862Z,74.93
2018-03-21T10:21:56.858Z,74.45
2018-03-21T10:22:56.851Z,74.17
2018-03-21T10:23:56.845Z,74.74
2018-03-21T10:24:56.839Z,73.79
2018-03-21T10:25:56.834Z,73.54
2018-03-21T10:26:56.827Z,73.54
2018-03-21T10:27:56.821Z,72.12
2018-03-21T10:28:56.869Z,72.12
2018-03-21T10:29:56.809Z,71.74
2018-03-21T10:30:56.807Z,71.84
2018-03-21T10:31:56.798Z,71.02
2018-03-21T10:32:56.793Z,70.26
2018-03-21T10:33:56.787Z,69.51
2018-03-21T10:34:56.783Z,69.03
2018-03-21T10:35:56.776Z,69.03
2018-03-21T10:36:56.772Z,68.56
2018-03-21T10:37:56.767Z,67.61
2018-03-21T10:38:57.067Z,68.18
2018-03-21T10:39:56.756Z,68.84
2018-03-21T10:40:56.752Z,67.80
2018-03-21T10:41:56.747Z,67.90
2018-03-21T10:42:56.743Z,67.90
2018-03-21T10:43:56.737Z,68.65
2018-03-21T10:44:56.803Z,68.75
2018-03-21T10:45:56.728Z,69.13
2018-03-21T10:46:56.724Z,67.99
2018-03-21T10:47:56.770Z,68.27
2018-03-21T10:48:56.751Z,67.52
2018-03-21T10:49:56.710Z,68.56
2018-03-21T10:50:56.706Z,68.46
2018-03-21T10:51:56.702Z,68.27
2018-03-21T10:52:56.697Z,67.99
2018-03-21T10:53:56.693Z,68.08
2018-03-21T10:54:56.689Z,68.27
2018-03-21T10:55:56.683Z,67.90
2018-03-21T10:56:56.678Z,67.80
2018-03-21T10:57:56.676Z,68.56
2018-03-21T10:58:56.671Z,68.18
2018-03-21T10:59:56.993Z,68.43
2018-03-21T11:00:56.660Z,68.52
2018-03-21T11:01:56.717Z,69.00
2018-03-21T11:02:56.654Z,69.00
2018-03-21T11:03:56.646Z,69.38
2018-03-21T11:04:56.659Z,69.00
2018-03-21T11:05:56.637Z,68.90
2018-03-21T11:06:56.632Z,69.19
2018-03-21T11:07:56.626Z,69.47
2018-03-21T11:08:56.621Z,69.57
2018-03-21T11:09:56.618Z,70.23
2018-03-21T11:10:56.612Z,70.01
2018-03-21T11:11:56.629Z,69.82
2018-03-21T11:12:56.602Z,70.14
2018-03-21T11:13:56.595Z,69.95
2018-03-21T11:14:56.592Z,69.00
2018-03-21T11:15:56.584Z,69.38
2018-03-21T11:16:56.585Z,69.47
2018-03-21T11:17:56.577Z,69.28
2018-03-21T11:18:56.569Z,69.66
2018-03-21T11:19:56.572Z,70.32
2018-03-21T11:20:56.557Z,69.66
2018-03-21T11:21:56.551Z,68.05
2018-03-21T11:22:56.553Z,68.05
2018-03-21T11:23:56.621Z,67.86
2018-03-21T11:24:56.535Z,68.52
2018-03-21T11:25:56.530Z,68.81
2018-03-21T11:26:56.524Z,69.00
2018-03-21T11:27:56.521Z,68.62
2018-03-21T11:28:56.513Z,69.19
2018-03-21T11:29:56.508Z,68.33
2018-03-21T11:30:56.503Z,68.24
2018-03-21T11:31:56.496Z,67.96
2018-03-21T11:32:56.493Z,67.39
2018-03-21T11:33:56.486Z,67.49
2018-03-21T11:34:56.483Z,67.58
2018-03-21T11:35:56.479Z,67.86
2018-03-21T11:36:56.470Z,68.05
2018-03-21T11:37:56.469Z,68.81
2018-03-21T11:38:56.480Z,69.38
2018-03-21T11:39:56.454Z,67.96
2018-03-21T11:40:56.448Z,68.65
2018-03-21T11:41:56.444Z,69.03
2018-03-21T11:42:56.439Z,68.56
2018-03-21T11:43:56.434Z,69.00
2018-03-21T11:44:56.476Z,68.81
2018-03-21T11:45:56.423Z,69.66
2018-03-21T11:46:56.418Z,70.61
2018-03-21T11:47:56.412Z,70.79
2018-03-21T11:48:56.407Z,70.14
2018-03-21T11:49:56.403Z,69.95
2018-03-21T11:50:56.502Z,70.14
2018-03-21T11:51:56.426Z,70.79
2018-03-21T11:52:56.387Z,70.89
2018-03-21T11:53:56.383Z,70.45
2018-03-21T11:54:56.377Z,69.89
2018-03-21T11:55:56.445Z,69.98
2018-03-21T11:56:56.366Z,70.26
2018-03-21T11:57:56.362Z,69.51
2018-03-21T11:58:56.357Z,69.51
2018-03-21T11:59:56.352Z,69.70
2018-03-21T12:00:56.348Z,69.41
2018-03-21T12:01:56.342Z,69.03
2018-03-21T12:02:56.338Z,69.13
2018-03-21T12:03:56.331Z,69.32
2018-03-21T12:04:56.328Z,69.51
2018-03-21T12:05:56.323Z,69.70
2018-03-21T12:06:56.319Z,69.89
2018-03-21T12:07:56.313Z,69.41
2018-03-21T12:08:56.308Z,69.60
2018-03-21T12:09:56.522Z,69.51
2018-03-21T12:10:56.298Z,69.70
2018-03-21T12:11:56.293Z,70.26
2018-03-21T12:12:56.289Z,70.55
2018-03-21T12:13:56.283Z,70.45
2018-03-21T12:14:56.279Z,70.64
2018-03-21T12:15:56.274Z,69.98
2018-03-21T12:16:56.269Z,69.32
2018-03-21T12:17:56.264Z,70.26
2018-03-21T12:18:56.259Z,70.93
2018-03-21T12:19:56.270Z,70.83
2018-03-21T12:20:56.250Z,71.08
2018-03-21T12:21:56.245Z,71.65
2018-03-21T12:22:56.241Z,70.98
2018-03-21T12:23:56.234Z,71.36
2018-03-21T12:24:56.230Z,71.55
2018-03-21T12:25:56.225Z,72.60
2018-03-21T12:26:56.221Z,73.07
2018-03-21T12:27:56.218Z,72.22
2018-03-21T12:28:56.210Z,71.27
2018-03-21T12:29:56.206Z,71.27
2018-03-21T12:30:56.200Z,72.22
2018-03-21T12:31:56.194Z,73.16
2018-03-21T12:32:56.190Z,72.69
2018-03-21T12:33:56.189Z,72.69
2018-03-21T12:34:56.180Z,72.03
2018-03-21T12:35:56.173Z,72.22
2018-03-21T12:36:56.170Z,71.65
2018-03-21T12:37:56.165Z,70.89
2018-03-21T12:38:56.160Z,71.74
2018-03-21T12:39:56.152Z,72.22
2018-03-21T12:40:56.147Z,72.78
2018-03-21T12:41:56.143Z,73.35
2018-03-21T12:42:56.138Z,74.49
2018-03-21T12:43:56.132Z,74.87
2018-03-21T12:44:56.126Z,76.10
2018-03-21T12:45:56.121Z,77.51
2018-03-21T12:46:56.118Z,77.23
2018-03-21T12:47:56.111Z,76.95
2018-03-21T12:48:56.105Z,76.95
2018-03-21T12:49:56.144Z,76.48
2018-03-21T12:50:56.094Z,75.62
2018-03-21T12:51:56.088Z,76.19